Time;durP1;ratioP1;P1;durP2;ratioP2;P2;SDS_P1;SDS_P2;PMS_P1;PMS_P2;Temp;Humidity;BMP_temperature;BMP_pressure;BME280_temperature;BME280_humidity;BME280_pressure;Samples;Min_cycle;Max_cycle;Signal;HPM_P1;HPM_P2
2024/03/05 00:00:10;;;;;;;37.05;17.48;;;;;;;6.03;100.00;96846.28;5061601;28;20145;-62
2024/03/05 00:02:41;;;;;;;38.63;18.33;;;;;;;6.06;100.00;96851.19;5055641;28;20408;-64
2024/03/05 00:05:08;;;;;;;38.78;16.83;;;;;;;6.08;100.00;96859.03;5053189;28;20128;-62
2024/03/05 00:07:38;;;;;;;40.47;18.52;;;;;;;6.05;100.00;96849.53;5054172;28;20037;-63
2024/03/05 00:10:05;;;;;;;43.80;19.73;;;;;;;6.05;100.00;96859.50;5058239;28;20087;-63
2024/03/05 00:12:33;;;;;;;41.65;19.15;;;;;;;5.98;100.00;96857.69;5064873;28;20041;-63
2024/03/05 00:15:00;;;;;;;36.80;17.88;;;;;;;6.01;100.00;96864.47;5066665;28;20526;-63
2024/03/05 00:17:27;;;;;;;39.55;17.38;;;;;;;6.07;100.00;96873.50;5064538;28;20042;-62
2024/03/05 00:19:53;;;;;;;38.72;17.63;;;;;;;6.05;100.00;96878.31;5053503;28;20067;-62
2024/03/05 00:22:20;;;;;;;40.80;18.90;;;;;;;6.06;100.00;96874.56;5060223;28;20108;-62
2024/03/05 00:24:47;;;;;;;42.08;19.02;;;;;;;6.10;100.00;96881.09;5064148;28;20052;-63
2024/03/05 00:27:16;;;;;;;41.83;18.48;;;;;;;6.05;100.00;96879.09;5058813;28;20078;-63
2024/03/05 00:29:42;;;;;;;47.83;18.95;;;;;;;6.00;100.00;96878.97;5054719;28;20105;-64
2024/03/05 00:32:09;;;;;;;41.97;19.17;;;;;;;6.02;100.00;96876.88;5063005;28;20041;-63
2024/03/05 00:34:36;;;;;;;43.30;19.27;;;;;;;6.03;100.00;96885.75;5047613;28;20718;-63
2024/03/05 00:37:02;;;;;;;45.60;19.73;;;;;;;6.07;100.00;96881.56;5053943;28;20051;-63
2024/03/05 00:39:29;;;;;;;44.80;19.48;;;;;;;6.02;100.00;96878.75;5055040;28;20051;-64
2024/03/05 00:41:55;;;;;;;41.20;19.45;;;;;;;5.94;100.00;96874.53;5047904;28;20047;-62
2024/03/05 00:44:22;;;;;;;45.75;21.63;;;;;;;5.98;100.00;96875.72;5050580;28;20044;-62
2024/03/05 00:46:48;;;;;;;51.50;20.45;;;;;;;5.89;100.00;96883.28;5050847;28;20053;-62
2024/03/05 00:49:15;;;;;;;48.53;20.30;;;;;;;5.98;100.00;96887.25;5057264;28;20048;-64
2024/03/05 00:51:41;;;;;;;45.40;20.30;;;;;;;5.96;100.00;96881.31;5061356;28;20045;-62
2024/03/05 00:54:09;;;;;;;49.67;20.48;;;;;;;5.98;100.00;96886.47;5054812;28;20532;-62
2024/03/05 00:56:37;;;;;;;50.08;20.85;;;;;;;5.94;100.00;96888.78;5055130;28;20041;-62
2024/03/05 00:59:04;;;;;;;51.28;21.25;;;;;;;5.97;100.00;96890.22;5054712;28;20041;-63
2024/03/05 01:01:30;;;;;;;53.53;21.25;;;;;;;5.87;100.00;96896.16;5061294;28;20446;-63
2024/03/05 01:03:58;;;;;;;57.25;23.05;;;;;;;5.94;100.00;96893.34;5053494;28;20053;-63
2024/03/05 01:06:24;;;;;;;49.00;20.67;;;;;;;5.96;100.00;96894.75;5063024;28;20048;-61
2024/03/05 01:08:51;;;;;;;54.50;22.75;;;;;;;5.95;100.00;96889.59;5063279;28;20036;-62
2024/03/05 01:11:17;;;;;;;46.00;20.65;;;;;;;5.97;100.00;96887.53;5060497;28;20044;-64
2024/03/05 01:13:44;;;;;;;52.28;22.10;;;;;;;5.96;100.00;96891.25;5065806;28;20044;-63
2024/03/05 01:16:10;;;;;;;50.70;22.02;;;;;;;5.90;100.00;96892.19;5061533;28;20520;-63
2024/03/05 01:18:37;;;;;;;46.40;20.52;;;;;;;5.86;100.00;96883.75;5061832;28;20055;-63
2024/03/05 01:21:05;;;;;;;48.80;20.92;;;;;;;5.91;100.00;96889.28;5057198;28;20048;-63
2024/03/05 01:23:33;;;;;;;44.08;20.48;;;;;;;5.86;100.00;96884.59;5055992;28;20052;-63
2024/03/05 01:26:00;;;;;;;47.28;21.35;;;;;;;5.92;100.00;96887.38;5063692;28;20044;-64
2024/03/05 01:28:28;;;;;;;42.80;19.35;;;;;;;5.95;100.00;96890.44;5062009;28;20040;-62
2024/03/05 01:30:54;;;;;;;46.88;20.50;;;;;;;5.94;100.00;96890.66;5057360;28;20131;-63
2024/03/05 01:33:22;;;;;;;44.05;19.73;;;;;;;5.93;100.00;96883.66;5052856;28;20040;-63
2024/03/05 01:35:49;;;;;;;52.35;21.83;;;;;;;5.85;100.00;96884.81;5050419;28;20051;-63
2024/03/05 01:38:16;;;;;;;47.22;20.77;;;;;;;5.80;100.00;96890.06;5059065;28;20040;-64
2024/03/05 01:40:42;;;;;;;47.45;21.15;;;;;;;5.71;100.00;96890.41;5060688;28;20043;-62
2024/03/05 01:43:09;;;;;;;52.78;20.80;;;;;;;5.76;100.00;96895.09;5053942;28;20052;-62
2024/03/05 01:45:36;;;;;;;48.95;20.00;;;;;;;5.79;100.00;96889.25;5049614;28;20056;-64
2024/03/05 01:48:04;;;;;;;45.85;20.33;;;;;;;5.86;100.00;96894.50;5057495;28;20041;-63
2024/03/05 01:50:36;;;;;;;54.67;21.60;;;;;;;5.86;100.00;96889.97;5056876;28;20043;-63
2024/03/05 01:53:06;;;;;;;48.40;19.42;;;;;;;5.77;100.00;96887.84;5053301;28;20112;-63
2024/03/05 01:55:33;;;;;;;50.42;19.88;;;;;;;5.78;100.00;96895.69;5058323;28;21706;-63
2024/03/05 01:58:03;;;;;;;44.42;19.35;;;;;;;5.83;100.00;96893.09;5055507;28;20102;-63
2024/03/05 02:00:31;;;;;;;47.83;20.33;;;;;;;5.76;100.00;96888.91;5054253;28;20822;-64
2024/03/05 02:02:58;;;;;;;43.47;20.33;;;;;;;5.79;100.00;96886.56;5055784;28;20052;-63
2024/03/05 02:05:25;;;;;;;52.22;20.38;;;;;;;5.93;100.00;96889.03;5057777;28;20032;-63
2024/03/05 02:07:53;;;;;;;47.60;20.42;;;;;;;5.90;100.00;96884.91;5057897;28;20045;-63
2024/03/05 02:10:20;;;;;;;44.72;19.85;;;;;;;5.82;100.00;96879.94;5054481;28;20668;-63
2024/03/05 02:12:47;;;;;;;42.40;18.45;;;;;;;5.75;100.00;96880.00;5061143;28;20125;-62
2024/03/05 02:15:14;;;;;;;53.10;19.52;;;;;;;5.84;100.00;96894.75;5056589;28;20051;-61
2024/03/05 02:17:45;;;;;;;45.55;19.73;;;;;;;5.90;100.00;96892.97;5057922;28;20105;-63
2024/03/05 02:20:13;;;;;;;47.45;19.42;;;;;;;5.98;100.00;96895.31;5058308;28;22137;-62
2024/03/05 02:22:41;;;;;;;51.05;21.10;;;;;;;6.01;100.00;96883.28;5053228;28;20036;-63
2024/03/05 02:25:09;;;;;;;44.85;19.00;;;;;;;5.97;100.00;96882.16;5060629;28;20076;-62
2024/03/05 02:27:37;;;;;;;44.72;19.83;;;;;;;5.93;100.00;96886.34;5062145;28;20124;-62
2024/03/05 02:30:10;;;;;;;39.60;18.98;;;;;;;5.86;100.00;96876.53;5052853;28;20045;-63
2024/03/05 02:32:41;;;;;;;39.03;18.23;;;;;;;5.78;100.00;96866.13;5057653;28;20048;-64
2024/03/05 02:35:09;;;;;;;43.85;18.27;;;;;;;5.75;100.00;96869.25;5058246;28;20041;-62
2024/03/05 02:37:51;;;;;;;46.45;19.15;;;;;;;5.72;100.00;96873.25;5050276;28;20049;-63
2024/03/05 02:40:17;;;;;;;47.83;19.30;;;;;;;5.72;100.00;96880.50;5060462;28;20111;-63
2024/03/05 02:42:44;;;;;;;43.97;18.75;;;;;;;5.66;100.00;96867.97;5052549;28;20039;-62
2024/03/05 02:45:11;;;;;;;42.80;18.80;;;;;;;5.57;100.00;96868.31;5069683;28;20048;-63
2024/03/05 02:47:41;;;;;;;41.90;18.88;;;;;;;5.49;100.00;96879.41;5052660;28;20047;-63
2024/03/05 02:50:09;;;;;;;44.25;19.63;;;;;;;5.49;100.00;96884.78;5053735;28;20045;-63
2024/03/05 02:52:36;;;;;;;50.80;18.63;;;;;;;5.54;100.00;96890.28;5054208;28;20045;-63
2024/03/05 02:55:03;;;;;;;45.78;18.55;;;;;;;5.56;100.00;96887.34;5061511;28;20416;-65
2024/03/05 02:57:31;;;;;;;48.65;19.90;;;;;;;5.60;100.00;96889.34;5061260;28;20036;-64
2024/03/05 02:59:57;;;;;;;43.50;18.60;;;;;;;5.47;100.00;96887.72;5058229;28;20041;-63
2024/03/05 03:02:24;;;;;;;39.72;17.05;;;;;;;5.28;100.00;96891.50;5049249;28;20041;-63
2024/03/05 03:04:51;;;;;;;45.28;17.35;;;;;;;5.25;100.00;96908.06;5057781;28;20040;-62
2024/03/05 03:07:18;;;;;;;51.63;18.48;;;;;;;5.21;100.00;96905.03;5055141;28;20036;-64
2024/03/05 03:09:46;;;;;;;50.53;20.08;;;;;;;5.39;100.00;96924.81;5053395;28;20051;-64
2024/03/05 03:12:13;;;;;;;46.05;19.55;;;;;;;5.32;100.00;96916.84;5053855;28;20055;-62
2024/03/05 03:14:44;;;;;;;45.10;18.27;;;;;;;5.33;100.00;96916.63;5058002;28;20060;-63
2024/03/05 03:17:11;;;;;;;45.33;18.30;;;;;;;5.36;100.00;96906.47;5055971;28;20648;-62
2024/03/05 03:19:37;;;;;;;49.55;19.17;;;;;;;5.27;100.00;96903.31;5053301;28;20488;-63
2024/03/05 03:22:04;;;;;;;43.33;17.60;;;;;;;5.17;100.00;96911.91;5057330;28;20103;-63
2024/03/05 03:24:31;;;;;;;47.63;17.33;;;;;;;5.23;100.00;96921.72;5051917;28;20051;-63
2024/03/05 03:26:58;;;;;;;45.42;18.08;;;;;;;5.25;100.00;96919.63;5060205;28;20106;-64
2024/03/05 03:29:26;;;;;;;46.08;19.58;;;;;;;5.25;100.00;96919.63;5056720;28;20040;-63
2024/03/05 03:31:55;;;;;;;55.90;21.17;;;;;;;5.19;100.00;96928.59;5052713;28;20049;-64
2024/03/05 03:34:21;;;;;;;43.60;18.65;;;;;;;5.16;100.00;96929.88;5055112;28;20032;-63
2024/03/05 03:36:48;;;;;;;47.63;19.08;;;;;;;5.16;100.00;96932.56;5055132;28;20041;-63
2024/03/05 03:39:23;;;;;;;47.50;19.23;;;;;;;5.18;100.00;96929.66;5054107;28;20049;-64
2024/03/05 03:41:54;;;;;;;51.00;18.67;;;;;;;5.34;100.00;96934.38;5052673;28;20045;-63
2024/03/05 03:44:22;;;;;;;53.95;20.17;;;;;;;5.42;100.00;96925.16;5058718;28;20048;-64
2024/03/05 03:46:49;;;;;;;44.13;18.58;;;;;;;5.33;100.00;96922.00;5058587;28;20050;-62
2024/03/05 03:49:20;;;;;;;49.17;19.67;;;;;;;5.34;100.00;96923.63;5059508;28;20060;-63
2024/03/05 03:51:46;;;;;;;48.25;19.67;;;;;;;5.32;100.00;96928.44;5056809;28;20036;-63
2024/03/05 03:54:13;;;;;;;48.15;18.75;;;;;;;5.33;100.00;96934.59;5060508;28;20052;-63
2024/03/05 03:56:39;;;;;;;53.10;19.50;;;;;;;5.33;100.00;96929.22;5058195;28;20551;-64
2024/03/05 03:59:06;;;;;;;56.63;20.90;;;;;;;5.36;100.00;96936.00;5061153;28;20044;-63
2024/03/05 04:01:34;;;;;;;51.72;19.48;;;;;;;5.46;100.00;96941.66;5045503;28;20107;-65
2024/03/05 04:04:02;;;;;;;53.47;20.52;;;;;;;5.52;100.00;96942.56;5057969;28;20036;-63
2024/03/05 04:06:30;;;;;;;49.70;19.88;;;;;;;5.50;100.00;96940.16;5055535;28;20047;-65
2024/03/05 04:08:57;;;;;;;54.47;21.92;;;;;;;5.52;100.00;96942.56;5057406;28;20037;-64
2024/03/05 04:11:23;;;;;;;50.25;19.80;;;;;;;5.51;100.00;96936.41;5058764;28;20041;-65
2024/03/05 04:13:50;;;;;;;48.83;19.52;;;;;;;5.53;100.00;96925.44;5051633;28;20055;-65
2024/03/05 04:16:16;;;;;;;46.00;19.25;;;;;;;5.49;100.00;96935.78;5054438;28;20048;-62
2024/03/05 04:18:45;;;;;;;46.55;18.48;;;;;;;5.52;100.00;96929.16;5056431;28;20115;-64
2024/03/05 04:21:12;;;;;;;47.17;19.17;;;;;;;5.49;100.00;96930.44;5051579;28;20055;-64
2024/03/05 04:23:39;;;;;;;45.17;18.02;;;;;;;5.50;100.00;96934.78;5060673;28;20036;-63
2024/03/05 04:26:13;;;;;;;52.88;20.80;;;;;;;5.46;100.00;96931.72;5060221;28;20044;-64
2024/03/05 04:28:48;;;;;;;47.15;19.42;;;;;;;5.48;100.00;96931.47;5059352;28;20041;-63
2024/03/05 04:31:16;;;;;;;47.95;19.52;;;;;;;5.54;100.00;96933.25;5064755;28;20047;-64
2024/03/05 04:33:46;;;;;;;51.35;20.98;;;;;;;5.64;100.00;96924.63;5057611;28;20113;-65
2024/03/05 04:36:14;;;;;;;43.83;19.27;;;;;;;5.73;100.00;96925.94;5061051;28;20040;-63
2024/03/05 04:38:42;;;;;;;44.53;18.95;;;;;;;5.73;100.00;96925.13;5053508;28;20052;-63
2024/03/05 04:41:13;;;;;;;44.33;19.98;;;;;;;5.78;100.00;96925.22;5064681;28;20044;-64
2024/03/05 04:43:40;;;;;;;44.03;18.40;;;;;;;5.93;100.00;96922.09;5058079;28;20064;-64
2024/03/05 04:46:08;;;;;;;45.75;18.88;;;;;;;5.94;100.00;96925.59;5063974;28;20738;-63
2024/03/05 04:48:35;;;;;;;38.00;17.15;;;;;;;6.07;100.00;96930.78;5062191;28;20048;-64
2024/03/05 04:51:01;;;;;;;38.47;17.50;;;;;;;6.07;100.00;96921.88;5055423;28;20041;-64
2024/03/05 04:53:28;;;;;;;40.85;17.00;;;;;;;6.05;100.00;96919.41;5061420;28;20454;-63
2024/03/05 04:55:57;;;;;;;41.60;18.50;;;;;;;5.92;100.00;96911.56;5058210;28;20064;-63
2024/03/05 04:58:24;;;;;;;38.55;17.85;;;;;;;5.89;100.00;96912.06;5053146;28;20036;-62
2024/03/05 05:00:50;;;;;;;43.65;18.52;;;;;;;5.83;100.00;96911.91;5054915;28;20733;-63
2024/03/05 05:03:18;;;;;;;39.83;17.80;;;;;;;5.75;100.00;96914.94;5072369;28;20036;-65
2024/03/05 05:05:44;;;;;;;41.63;18.10;;;;;;;5.75;100.00;96923.00;5060549;28;20056;-64
2024/03/05 05:08:11;;;;;;;33.95;16.77;;;;;;;5.91;100.00;96926.06;5054660;28;20055;-64
2024/03/05 05:10:37;;;;;;;40.50;16.95;;;;;;;5.92;100.00;96928.53;5048707;28;20135;-64
2024/03/05 05:13:05;;;;;;;35.30;16.67;;;;;;;5.98;100.00;96924.09;5058155;28;20493;-64
2024/03/05 05:15:32;;;;;;;33.92;16.85;;;;;;;6.03;100.00;96929.59;5063357;28;20048;-63
2024/03/05 05:18:00;;;;;;;37.30;16.50;;;;;;;6.08;100.00;96927.03;5063780;28;20677;-64
2024/03/05 05:20:27;;;;;;;38.50;17.60;;;;;;;6.08;100.00;96926.22;5062284;28;20051;-64
2024/03/05 05:22:54;;;;;;;32.22;15.43;;;;;;;5.90;100.00;96924.44;5053367;28;20132;-63
2024/03/05 05:25:21;;;;;;;38.60;15.70;;;;;;;5.93;100.00;96927.47;5064428;28;20044;-64
2024/03/05 05:27:48;;;;;;;36.00;16.63;;;;;;;5.96;100.00;96932.38;5055045;28;20029;-64
2024/03/05 05:30:18;;;;;;;34.72;16.27;;;;;;;5.88;100.00;96931.88;5052172;28;20141;-65
2024/03/05 05:32:47;;;;;;;37.83;16.48;;;;;;;5.76;100.00;96923.81;5068765;28;20041;-63
2024/03/05 05:35:15;;;;;;;37.78;16.90;;;;;;;5.70;100.00;96925.56;5064792;28;20056;-64
2024/03/05 05:37:42;;;;;;;37.80;16.55;;;;;;;5.66;100.00;96930.59;5061555;28;20083;-64
2024/03/05 05:40:10;;;;;;;35.60;16.02;;;;;;;5.65;100.00;96942.41;5063738;28;20059;-64
2024/03/05 05:42:38;;;;;;;35.28;16.38;;;;;;;5.70;100.00;96931.78;5059905;28;20705;-64
2024/03/05 05:45:12;;;;;;;40.97;17.38;;;;;;;5.81;100.00;96934.69;5065435;28;20123;-63
2024/03/05 05:47:49;;;;;;;35.00;15.13;;;;;;;5.81;100.00;96932.84;5058148;28;20618;-64
2024/03/05 05:50:18;;;;;;;36.63;16.65;;;;;;;5.79;100.00;96934.13;5062454;28;20049;-63
2024/03/05 05:52:50;;;;;;;35.47;16.23;;;;;;;5.78;100.00;96935.97;5052504;28;20044;-63
2024/03/05 05:55:20;;;;;;;32.55;15.23;;;;;;;5.79;100.00;96934.13;5064923;28;20527;-64
2024/03/05 05:57:48;;;;;;;32.60;14.70;;;;;;;5.75;100.00;96933.75;5058773;28;20045;-65
2024/03/05 06:00:22;;;;;;;35.38;15.23;;;;;;;5.76;100.00;96935.41;5061240;28;20519;-64
2024/03/05 06:02:53;;;;;;;33.45;15.05;;;;;;;5.77;100.00;96938.88;5055468;28;20045;-64
2024/03/05 06:05:27;;;;;;;35.60;15.88;;;;;;;5.77;100.00;96939.72;5063666;28;20050;-64
2024/03/05 06:07:53;;;;;;;33.55;15.15;;;;;;;5.80;100.00;96946.50;5066196;28;20132;-65
2024/03/05 06:10:22;;;;;;;37.33;15.35;;;;;;;5.86;100.00;96943.69;5063868;28;20044;-63
2024/03/05 06:12:48;;;;;;;35.75;15.45;;;;;;;5.86;100.00;96948.25;5052870;28;20040;-64
2024/03/05 06:15:18;;;;;;;35.50;16.08;;;;;;;5.85;100.00;96951.97;5065631;28;20045;-64
2024/03/05 06:17:45;;;;;;;31.40;15.27;;;;;;;5.84;100.00;96950.34;5061659;28;20045;-65
2024/03/05 06:20:14;;;;;;;35.22;15.57;;;;;;;5.82;100.00;96953.28;5064179;28;20049;-65
2024/03/05 06:22:43;;;;;;;33.70;15.02;;;;;;;5.90;100.00;96949.41;5060038;28;20075;-65
2024/03/05 06:25:13;;;;;;;35.30;15.25;;;;;;;5.92;100.00;96949.19;5071046;28;20040;-64
2024/03/05 06:27:40;;;;;;;34.58;15.63;;;;;;;5.95;100.00;96954.94;5059058;28;20055;-64
2024/03/05 06:30:09;;;;;;;29.60;15.05;;;;;;;5.93;100.00;96957.03;5056790;28;20062;-64
2024/03/05 06:32:43;;;;;;;34.53;16.52;;;;;;;5.99;100.00;96950.72;5059754;28;20067;-65
2024/03/05 06:35:10;;;;;;;37.78;15.88;;;;;;;5.93;100.00;96957.03;5055277;28;20302;-65
2024/03/05 06:37:45;;;;;;;34.15;16.98;;;;;;;5.72;100.00;96964.56;5053770;28;20040;-64
2024/03/05 06:40:13;;;;;;;32.45;16.33;;;;;;;5.68;100.00;96970.66;5052799;28;20052;-65
2024/03/05 06:42:41;;;;;;;32.28;15.35;;;;;;;5.69;100.00;96977.66;5067213;28;20040;-64
2024/03/05 06:45:08;;;;;;;40.08;17.05;;;;;;;5.76;100.00;96980.25;5057722;28;20691;-65
2024/03/05 06:47:39;;;;;;;39.05;16.42;;;;;;;5.76;100.00;96977.56;5058542;28;20051;-64
2024/03/05 06:50:08;;;;;;;39.13;16.33;;;;;;;5.82;100.00;96980.13;5055362;28;20049;-63
2024/03/05 06:58:05;;;;;;;30.42;15.50;;;;;;;5.91;100.00;96975.25;5061458;28;20048;-66
2024/03/05 07:00:31;;;;;;;32.25;14.68;;;;;;;5.89;100.00;96977.34;5060679;28;20046;-63
2024/03/05 07:02:58;;;;;;;35.35;14.77;;;;;;;5.88;100.00;96988.31;5055634;28;20044;-64
2024/03/05 07:05:25;;;;;;;36.05;14.93;;;;;;;5.83;100.00;96986.34;5059524;28;20047;-65
2024/03/05 07:07:51;;;;;;;34.42;16.27;;;;;;;5.84;100.00;96983.44;5060677;28;20522;-64
2024/03/05 07:10:21;;;;;;;32.90;15.80;;;;;;;5.93;100.00;96988.47;5062365;28;20055;-65
2024/03/05 07:12:50;;;;;;;33.75;15.07;;;;;;;5.97;100.00;96989.66;5055260;28;20831;-65
2024/03/05 07:15:17;;;;;;;32.22;15.73;;;;;;;5.97;100.00;96989.66;5065471;28;20547;-64
2024/03/05 07:17:44;;;;;;;34.55;16.10;;;;;;;5.94;100.00;96990.91;5062896;28;20118;-65
2024/03/05 07:20:24;;;;;;;32.00;14.95;;;;;;;6.07;100.00;96991.75;5051774;28;20539;-65
2024/03/05 07:22:55;;;;;;;34.85;15.13;;;;;;;6.09;100.00;96995.06;5062630;28;20056;-65
2024/03/05 07:25:22;;;;;;;34.23;14.60;;;;;;;6.03;100.00;96994.09;5058125;28;20044;-63
2024/03/05 07:27:50;;;;;;;27.73;13.73;;;;;;;5.97;100.00;96995.81;5056198;28;20303;-65
2024/03/05 07:30:17;;;;;;;26.45;13.98;;;;;;;6.00;100.00;96997.22;5066002;28;20625;-65
2024/03/05 07:32:45;;;;;;;30.10;13.95;;;;;;;5.94;100.00;96992.78;5065813;28;20107;-65
2024/03/05 07:35:13;;;;;;;26.50;12.93;;;;;;;5.94;100.00;96998.97;5052053;28;20098;-64
2024/03/05 07:37:49;;;;;;;25.25;12.57;;;;;;;5.83;100.00;97008.63;5066115;28;20045;-65
2024/03/05 07:40:17;;;;;;;24.95;11.38;;;;;;;5.69;100.00;97012.59;5056953;28;20172;-65
2024/03/05 07:42:53;;;;;;;28.08;11.65;;;;;;;5.72;100.00;97020.19;5052148;28;20044;-65
2024/03/05 07:45:22;;;;;;;19.27;9.63;;;;;;;5.63;100.00;97008.94;5062910;28;20063;-65
2024/03/05 07:47:49;;;;;;;21.75;9.13;;;;;;;5.55;100.00;97006.56;5056005;28;20063;-64
2024/03/05 07:50:17;;;;;;;17.33;8.25;;;;;;;5.64;100.00;97010.56;5054195;28;20093;-65
2024/03/05 07:52:45;;;;;;;20.10;7.90;;;;;;;5.58;100.00;97009.66;5061481;28;20049;-65
2024/03/05 07:55:15;;;;;;;15.80;7.53;;;;;;;5.50;100.00;97015.34;5057214;28;20044;-62
2024/03/05 07:57:42;;;;;;;15.15;7.65;;;;;;;5.49;100.00;97015.56;5061701;28;20048;-63
2024/03/05 08:00:13;;;;;;;15.00;7.47;;;;;;;5.46;100.00;97019.53;5038362;28;20058;-61
2024/03/05 08:03:06;;;;;;;19.27;8.02;;;;;;;5.48;100.00;97017.41;5045983;28;20144;-65
2024/03/05 08:05:34;;;;;;;14.85;7.32;;;;;;;5.39;100.00;97016.94;5047994;28;20083;-63
2024/03/05 08:08:02;;;;;;;15.05;7.50;;;;;;;5.37;100.00;97023.53;5064072;28;20699;-62
2024/03/05 08:10:29;;;;;;;14.27;7.00;;;;;;;5.33;100.00;97029.38;5061078;28;20688;-62
2024/03/05 08:12:56;;;;;;;12.52;6.07;;;;;;;5.32;100.00;97025.06;5059277;28;20124;-62
2024/03/05 08:15:26;;;;;;;11.05;6.05;;;;;;;5.30;100.00;97029.84;5053318;28;20049;-63
2024/03/05 08:17:53;;;;;;;11.70;5.90;;;;;;;5.31;100.00;97027.97;5054757;28;20724;-67
2024/03/05 08:20:25;;;;;;;10.63;5.15;;;;;;;5.37;100.00;97027.06;5038798;28;20043;-64
2024/03/05 08:22:53;;;;;;;11.68;4.65;;;;;;;5.31;100.00;97020.72;5040761;28;20052;-64
2024/03/05 08:25:21;;;;;;;8.35;4.43;;;;;;;5.37;100.00;97032.44;5037806;28;20040;-65
2024/03/05 08:27:57;;;;;;;12.05;4.38;;;;;;;5.34;100.00;97025.66;5049188;28;20036;-66
2024/03/05 08:30:29;;;;;;;10.07;4.28;;;;;;;5.45;100.00;97033.97;5055078;28;20495;-65
2024/03/05 08:32:56;;;;;;;8.68;3.45;;;;;;;5.37;100.00;97023.53;5053822;28;20041;-65
2024/03/05 08:35:25;;;;;;;11.10;4.45;;;;;;;5.36;100.00;97035.34;5060902;28;20565;-65
2024/03/05 08:37:52;;;;;;;8.00;4.00;;;;;;;5.34;100.00;97033.72;5058461;28;20063;-66
2024/03/05 08:40:20;;;;;;;8.20;3.72;;;;;;;5.41;100.00;97033.63;5060083;28;20043;-65
2024/03/05 08:42:54;;;;;;;7.45;3.70;;;;;;;5.44;100.00;97032.34;5055311;28;20073;-68
2024/03/05 08:45:23;;;;;;;8.52;4.00;;;;;;;5.43;100.00;97030.72;5052203;28;20032;-65
2024/03/05 08:47:52;;;;;;;8.10;4.03;;;;;;;5.52;100.00;97029.34;5057288;28;20145;-66
2024/03/05 08:50:20;;;;;;;9.30;3.78;;;;;;;5.53;100.00;97027.47;5052413;28;20105;-66
2024/03/05 08:52:48;;;;;;;9.70;4.50;;;;;;;5.53;100.00;97030.97;5055221;28;20066;-66
2024/03/05 08:55:15;;;;;;;9.40;4.50;;;;;;;5.52;100.00;97032.03;5059708;28;20045;-67
2024/03/05 08:57:43;;;;;;;11.07;4.55;;;;;;;5.54;100.00;97029.94;5062678;28;20774;-65
2024/03/05 09:00:17;;;;;;;8.40;5.25;;;;;;;5.61;100.00;97029.84;5064674;28;20040;-66
2024/03/05 09:03:05;;;;;;;10.52;5.15;;;;;;;5.71;100.00;97030.09;5052264;28;20052;-66
2024/03/05 09:05:32;;;;;;;14.23;6.00;;;;;;;5.77;100.00;97035.59;5065802;28;20511;-66
2024/03/05 09:07:59;;;;;;;12.32;5.78;;;;;;;5.80;100.00;97033.28;5068775;28;20119;-66
2024/03/05 09:10:25;;;;;;;10.48;5.38;;;;;;;5.77;100.00;97031.06;5066494;28;20044;-65
2024/03/05 09:12:52;;;;;;;11.38;5.93;;;;;;;5.91;100.00;97039.75;5055475;28;20485;-65
2024/03/05 09:15:19;;;;;;;13.93;6.60;;;;;;;5.82;100.00;97033.88;5062145;28;20123;-64
2024/03/05 09:17:46;;;;;;;12.18;6.00;;;;;;;5.84;100.00;97034.47;5057164;28;20045;-65
2024/03/05 09:20:16;;;;;;;11.15;6.25;;;;;;;5.77;100.00;97039.13;5061729;28;20047;-64
2024/03/05 09:22:44;;;;;;;12.25;5.78;;;;;;;5.96;100.00;97041.72;5055286;28;20052;-69
2024/03/05 09:25:13;;;;;;;9.88;5.57;;;;;;;5.99;100.00;97041.28;5055868;28;20404;-69
2024/03/05 09:27:40;;;;;;;10.32;5.07;;;;;;;5.88;100.00;97042.88;5051488;28;20064;-65
2024/03/05 09:30:08;;;;;;;11.93;6.13;;;;;;;5.91;100.00;97044.28;5053638;28;20620;-65
2024/03/05 09:32:36;;;;;;;10.57;5.65;;;;;;;6.11;100.00;97047.53;5061924;28;20056;-65
2024/03/05 09:35:08;;;;;;;11.45;6.10;;;;;;;6.03;100.00;97047.00;5057462;28;20055;-65
2024/03/05 09:37:36;;;;;;;11.75;6.50;;;;;;;6.08;100.00;97047.97;5053291;28;20431;-65
2024/03/05 09:40:06;;;;;;;11.65;6.05;;;;;;;6.02;100.00;97053.44;5055402;28;20045;-68
2024/03/05 09:42:35;;;;;;;12.82;6.18;;;;;;;5.98;100.00;97050.41;5054833;28;20504;-66
2024/03/05 09:45:05;;;;;;;12.27;6.28;;;;;;;6.02;100.00;97064.19;5063839;28;20045;-64
2024/03/05 09:47:36;;;;;;;11.95;6.18;;;;;;;6.19;100.00;97059.00;5064513;28;20497;-64
2024/03/05 09:50:05;;;;;;;9.38;5.15;;;;;;;6.24;100.00;97053.75;5057844;28;20063;-64
2024/03/05 09:52:32;;;;;;;10.90;5.97;;;;;;;6.23;100.00;97055.59;5062656;28;20059;-65
2024/03/05 09:55:01;;;;;;;11.43;6.13;;;;;;;6.35;100.00;97061.00;5057287;28;20041;-65
2024/03/05 09:57:31;;;;;;;12.00;6.53;;;;;;;6.28;100.00;97064.84;5060213;28;20040;-65
2024/03/05 09:59:57;;;;;;;11.40;6.03;;;;;;;6.21;100.00;97064.97;5067931;28;20053;-66
2024/03/05 10:02:24;;;;;;;10.38;5.50;;;;;;;6.38;100.00;97057.03;5061448;28;20124;-65
2024/03/05 10:04:56;;;;;;;10.57;6.05;;;;;;;6.35;100.00;97057.50;5049204;28;20053;-65
2024/03/05 10:07:26;;;;;;;9.95;5.53;;;;;;;6.24;100.00;97059.91;5057255;28;20086;-66
2024/03/05 10:10:10;;;;;;;10.80;6.47;;;;;;;6.08;100.00;97063.31;5054827;28;20045;-65
2024/03/05 10:12:37;;;;;;;12.02;6.03;;;;;;;6.13;100.00;97060.75;5056584;28;20123;-65
2024/03/05 10:15:30;;;;;;;10.23;5.95;;;;;;;6.13;100.00;97063.44;5060785;28;20182;-67
2024/03/05 10:17:57;;;;;;;8.60;4.82;;;;;;;6.11;100.00;97071.72;5059080;28;20057;-65
2024/03/05 10:20:36;;;;;;;8.43;5.30;;;;;;;6.03;100.00;97065.81;5059872;28;20642;-66
2024/03/05 10:23:06;;;;;;;10.02;5.30;;;;;;;5.93;100.00;97074.47;5051114;28;20612;-66
2024/03/05 10:25:34;;;;;;;8.65;4.82;;;;;;;5.73;100.00;97078.25;5057223;28;20067;-65
2024/03/05 10:28:02;;;;;;;9.43;4.85;;;;;;;5.74;100.00;97074.50;5059796;28;20041;-67
2024/03/05 10:30:33;;;;;;;8.82;4.70;;;;;;;5.98;100.00;97069.22;5060739;28;20064;-67
2024/03/05 10:33:07;;;;;;;8.95;4.97;;;;;;;6.30;100.00;97079.69;5060428;28;20044;-65
2024/03/05 10:35:36;;;;;;;8.35;4.70;;;;;;;6.45;100.00;97078.44;5057378;28;21125;-64
2024/03/05 10:38:07;;;;;;;7.40;4.50;;;;;;;6.54;100.00;97073.53;5056311;28;20048;-63
2024/03/05 10:40:35;;;;;;;7.90;4.35;;;;;;;6.84;100.00;97078.81;5062731;28;20042;-64
2024/03/05 10:43:07;;;;;;;7.35;4.40;;;;;;;7.05;100.00;97078.41;5054127;28;20496;-64
2024/03/05 10:45:39;;;;;;;7.20;4.15;;;;;;;7.47;100.00;97080.06;5063590;28;20056;-64
2024/03/05 10:48:09;;;;;;;7.00;3.60;;;;;;;7.49;100.00;97078.78;5056747;28;20041;-63
2024/03/05 10:50:39;;;;;;;6.55;3.72;;;;;;;7.56;100.00;97084.06;5066515;28;20036;-63
2024/03/05 10:53:07;;;;;;;6.32;3.60;;;;;;;7.33;100.00;97082.25;5061707;28;20044;-65
2024/03/05 10:55:36;;;;;;;5.60;3.15;;;;;;;7.50;100.00;97085.00;5062682;28;20047;-65
2024/03/05 10:58:57;;;;;;;6.75;3.08;;;;;;;6.97;100.00;97077.72;5056859;28;20041;-64
2024/03/05 11:00:56;;;;;;;5.22;2.88;;;;;;;6.83;100.00;97077.16;5054812;28;20044;-64
2024/03/05 11:03:38;;;;;;;5.25;2.92;;;;;;;6.89;100.00;97078.06;5057871;28;20048;-63
2024/03/05 11:06:09;;;;;;;5.80;2.60;;;;;;;6.74;100.00;97081.25;5063071;28;20124;-64
2024/03/05 11:08:36;;;;;;;5.80;3.08;;;;;;;7.00;100.00;97081.81;5054735;28;20041;-65
2024/03/05 11:11:07;;;;;;;5.07;3.10;;;;;;;6.96;100.00;97084.16;5060246;28;20052;-63
2024/03/05 11:13:38;;;;;;;6.00;3.17;;;;;;;7.26;100.00;97087.75;5053950;28;20045;-63
2024/03/05 11:16:06;;;;;;;6.10;3.40;;;;;;;7.35;100.00;97082.81;5056047;28;20045;-63
2024/03/05 11:18:34;;;;;;;5.55;3.10;;;;;;;7.31;100.00;97084.34;5062030;28;20049;-64
2024/03/05 11:21:22;;;;;;;5.47;3.05;;;;;;;7.01;100.00;97083.47;5053991;28;20051;-63
2024/03/05 11:23:51;;;;;;;5.10;2.08;;;;;;;7.16;100.00;97080.28;5064107;28;20447;-63
2024/03/05 11:26:26;;;;;;;4.40;2.50;;;;;;;7.09;100.00;97076.88;5057306;28;20120;-64
2024/03/05 11:29:29;;;;;;;5.30;2.92;;;;;;;6.83;100.00;97073.66;5055730;28;20048;-64
2024/03/05 11:31:58;;;;;;;6.35;2.70;;;;;;;6.86;100.00;97075.88;5066707;28;20053;-63
2024/03/05 11:34:28;;;;;;;6.25;3.28;;;;;;;6.94;100.00;97075.53;5059553;28;20040;-64